الصفحة الرئيسية
METAR-TAF:

METAR-TAF

مطار :

مطار البحرين الدولي

البحرين, البحرين

دائرة عرض: 26-16N, خط طول: 050-39E, ارتفاع: 2 متر

مراقبة الطقس الحالي

تاريخ ووقت الإصدار 11 دقيقة قبل الساعة 01:00UTC
ريح 4 عقدة من الغرب
درجة الحرارة 34°درجة مئوية
الرطوبة 34%
ضغط 998 hPa
الرؤية 10 كم أو أكثر
الغيوم لا تقل 1500 م ولا وجود لمزنة ركامية السحاب الأسود

METAR: OBBI 170100Z 27004KT CAVOK 34/16 Q0998 NOSIG

زمن: 04:11 (01:11 UTC)

توقعات

تاريخ ووقت الإصدار 2ساعات و 11 دقيقة قبل الساعة 23:00UTC
التوقعات صالحة من17 الساعة 00 UTC إلى 18 الساعة 06 UTC
ريح 5 عقدة من الغرب
الرؤية 10 كم أو أكثر
الغيوم لا تقل 1500 م ولا وجود لمزنة ركامية السحاب الأسود
أصبح
من 17 الساعة 03 UTC إلى 17 الساعة 05 UTC
ريح 10 عقدة من الشمال/الشمال الغربي

TAF: OBBI 162300Z 1700/1806 27005KT CAVOK BECMG 1703/1705 34010KT

أرصاد الطقس والتوقعات من أكثر من 4000 مطار (تقارير الطقس للمطار METAR والتنبؤ بالطقس بالمطارTAF).

المحطات المتاحة هي النقط الصفراء والحمراء على الخريطة.

حرك المؤشر فوق النقطة لمعرفة اسم المحطة.

ثم انقر لمعرفة أرصاد وتوقعات الطقس.

لتغيير الخارطة: اضغط على الأزرار الخضراء مع رمز الصليب الأسود للتكبير. على الزر الأخضر مع شرطة للتصغير، أو على الأسهم الخضراء للخرائط المجاورة.


METAR-TAF: